Hepburn, Pennsylvania
Current Conditions -  °F | °C
As of 2:54 PM on Friday 28 Nov 2014 (Local Time) from KIPT Reporting Station
Clear Clear  
Wind Chill: 27°   Ceiling: Unl
Heat Index: 33°   Visibility: 10mi
Dew Point: 12°   Wind: 7mph
Humidity: 42%   Direction: 270°W
Pressure: 30.19"   Gusts: NA
Location:  41.3181°N, 77.075°W
Report Text: KIPT 281954Z 27006KT 10SM CLR 01/M11 A3019 RMK AO2 SLP231 T00061111
Loading
Personal Weather Stations






























Interactive Weather Map New forecast layout! Learn more

10-Day Weather Forecast

Advertisements
Track Severe Weather on mobile